createdAt,value
2023-03-26T00:00:47.340Z,0.00
2023-03-26T00:01:50.333Z,0.17
2023-03-26T00:02:53.442Z,0.00
2023-03-26T00:03:56.478Z,0.00
2023-03-26T00:04:59.762Z,0.00
2023-03-26T00:06:02.939Z,0.00
2023-03-26T00:07:06.118Z,0.00
2023-03-26T00:08:09.205Z,0.00
2023-03-26T00:09:12.175Z,0.00
2023-03-26T00:10:15.155Z,0.00
2023-03-26T00:11:18.349Z,0.00
2023-03-26T00:12:21.417Z,0.00
2023-03-26T00:13:24.844Z,0.00
2023-03-26T00:14:27.889Z,0.00
2023-03-26T00:15:31.060Z,0.00
2023-03-26T00:16:34.156Z,0.00
2023-03-26T00:17:37.280Z,0.00
2023-03-26T00:18:40.429Z,0.00
2023-03-26T00:19:43.851Z,0.00
2023-03-26T00:20:46.974Z,0.00
2023-03-26T00:21:50.159Z,0.00
2023-03-26T00:22:53.034Z,0.00
2023-03-26T00:23:56.331Z,0.00
2023-03-26T00:24:59.501Z,0.00
2023-03-26T00:26:02.997Z,0.00
2023-03-26T00:27:06.472Z,0.00
2023-03-26T00:28:09.558Z,0.00
2023-03-26T00:29:12.847Z,0.00
2023-03-26T00:30:16.229Z,0.00
2023-03-26T00:31:19.502Z,0.00
2023-03-26T00:32:22.594Z,0.00
2023-03-26T00:33:25.755Z,0.00
2023-03-26T00:34:28.779Z,0.00
2023-03-26T00:35:31.757Z,0.00
2023-03-26T00:36:34.921Z,0.00
2023-03-26T00:37:38.296Z,0.00
2023-03-26T00:38:41.588Z,0.00
2023-03-26T00:39:44.968Z,0.00
2023-03-26T00:40:48.357Z,0.00
2023-03-26T00:41:51.667Z,0.00
2023-03-26T00:42:55.026Z,0.00
2023-03-26T00:43:58.306Z,0.00
2023-03-26T00:45:01.601Z,0.00
2023-03-26T00:46:04.938Z,0.00
2023-03-26T00:47:08.170Z,0.00
2023-03-26T00:48:11.861Z,0.00
2023-03-26T00:49:15.058Z,0.00
2023-03-26T00:50:18.323Z,0.00
2023-03-26T00:51:21.729Z,0.00
2023-03-26T00:52:24.787Z,0.00
2023-03-26T00:53:28.281Z,0.00
2023-03-26T00:54:31.256Z,0.00
2023-03-26T00:55:34.649Z,0.00
2023-03-26T00:56:38.049Z,0.00
2023-03-26T00:57:41.112Z,0.43
2023-03-26T00:58:44.191Z,0.17
2023-03-26T00:59:47.473Z,0.00
2023-03-26T01:00:50.556Z,0.71
2023-03-26T01:01:53.882Z,0.17
2023-03-26T01:02:57.455Z,0.00
2023-03-26T01:04:08.662Z,0.00
2023-03-26T01:05:05.074Z,0.00
2023-03-26T01:06:11.272Z,0.00
2023-03-26T01:07:14.557Z,0.00
2023-03-26T01:08:17.849Z,0.00
2023-03-26T01:09:20.836Z,0.00
2023-03-26T01:10:26.787Z,0.00
2023-03-26T01:11:32.608Z,0.00
2023-03-26T01:12:36.105Z,0.00
2023-03-26T01:13:39.493Z,0.00
2023-03-26T01:14:43.897Z,0.00
2023-03-26T01:15:47.016Z,0.00
2023-03-26T01:16:50.228Z,0.00
2023-03-26T01:17:53.580Z,0.00
2023-03-26T01:18:56.826Z,0.00
2023-03-26T01:20:00.014Z,0.00
2023-03-26T01:21:03.194Z,0.00
2023-03-26T01:22:06.581Z,0.00
2023-03-26T01:23:09.762Z,0.00
2023-03-26T01:24:12.738Z,0.00
2023-03-26T01:25:15.921Z,0.00
2023-03-26T01:26:19.002Z,0.00
2023-03-26T01:27:22.187Z,0.00
2023-03-26T01:28:25.359Z,0.00
2023-03-26T01:29:28.452Z,0.00
2023-03-26T01:30:31.416Z,0.00
2023-03-26T01:31:34.394Z,0.00
2023-03-26T01:32:37.537Z,0.00
2023-03-26T01:33:40.734Z,0.00
2023-03-26T01:34:43.720Z,0.00
2023-03-26T01:35:46.702Z,0.00
2023-03-26T01:36:49.793Z,0.00
2023-03-26T01:37:52.884Z,0.00
2023-03-26T01:38:56.056Z,0.00
2023-03-26T01:39:59.361Z,0.00
2023-03-26T01:41:02.316Z,0.00
2023-03-26T01:42:05.597Z,0.00
2023-03-26T01:43:08.986Z,0.00
2023-03-26T01:44:11.939Z,0.00
2023-03-26T01:45:15.058Z,0.00
2023-03-26T01:46:18.465Z,0.00
2023-03-26T01:47:21.628Z,0.00
2023-03-26T01:48:24.566Z,0.00
2023-03-26T01:49:27.671Z,0.00
2023-03-26T01:50:30.742Z,0.00
2023-03-26T01:51:34.130Z,0.00
2023-03-26T01:52:37.630Z,0.00
2023-03-26T01:53:40.700Z,0.00
2023-03-26T01:54:43.880Z,0.00
2023-03-26T01:55:47.091Z,0.00
2023-03-26T01:56:50.257Z,0.00
2023-03-26T01:57:53.528Z,0.00
2023-03-26T01:58:56.710Z,0.00
2023-03-26T01:59:59.806Z,0.00
2023-03-26T02:01:02.960Z,0.00
2023-03-26T02:02:06.308Z,0.00
2023-03-26T02:03:09.492Z,0.00
2023-03-26T02:04:12.621Z,0.00
2023-03-26T02:05:15.920Z,0.00
2023-03-26T02:06:19.143Z,0.00
2023-03-26T02:07:22.127Z,0.00
2023-03-26T02:08:25.343Z,0.00
2023-03-26T02:09:28.634Z,0.00
2023-03-26T02:10:31.625Z,0.00
2023-03-26T02:11:35.948Z,0.00
2023-03-26T02:12:38.906Z,0.00
2023-03-26T02:13:41.936Z,0.00
2023-03-26T02:14:45.051Z,0.00
2023-03-26T02:15:49.779Z,0.00
2023-03-26T02:16:52.744Z,0.00
2023-03-26T02:17:55.851Z,0.00
2023-03-26T02:18:58.902Z,0.00
2023-03-26T02:20:01.982Z,0.00
2023-03-26T02:21:06.331Z,0.00
2023-03-26T02:22:09.355Z,0.00
2023-03-26T02:23:12.356Z,0.00
2023-03-26T02:24:15.331Z,0.00
2023-03-26T02:25:20.901Z,0.00
2023-03-26T02:26:25.495Z,0.00
2023-03-26T02:27:28.557Z,0.00
2023-03-26T02:28:31.736Z,0.00
2023-03-26T02:29:34.815Z,0.00
2023-03-26T02:30:37.904Z,0.00
2023-03-26T02:31:41.040Z,0.00
2023-03-26T02:32:44.256Z,0.00
2023-03-26T02:33:47.246Z,0.00
2023-03-26T02:34:50.423Z,0.00
2023-03-26T02:35:54.272Z,0.00
2023-03-26T02:36:57.914Z,0.00
2023-03-26T02:38:01.168Z,0.00
2023-03-26T02:39:04.497Z,0.00
2023-03-26T02:40:07.793Z,0.00
2023-03-26T02:41:11.151Z,0.00
2023-03-26T02:42:14.549Z,0.00
2023-03-26T02:43:17.714Z,0.00
2023-03-26T02:44:20.896Z,0.00
2023-03-26T02:45:24.290Z,0.00
2023-03-26T02:46:27.572Z,0.00
2023-03-26T02:47:31.227Z,0.00
2023-03-26T02:48:34.572Z,0.00
2023-03-26T02:49:37.635Z,0.00
2023-03-26T02:50:40.604Z,0.00
2023-03-26T02:51:43.783Z,0.00
2023-03-26T02:52:46.986Z,0.00
2023-03-26T02:53:49.841Z,0.00
2023-03-26T02:54:52.934Z,0.00
2023-03-26T02:55:56.147Z,0.00
2023-03-26T02:56:59.409Z,0.00
2023-03-26T02:58:02.472Z,0.00
2023-03-26T02:59:05.433Z,0.00
2023-03-26T03:00:08.528Z,0.00
2023-03-26T03:01:11.592Z,0.00
2023-03-26T03:02:14.740Z,0.00
2023-03-26T03:03:17.782Z,0.00
2023-03-26T03:04:20.852Z,0.00
2023-03-26T03:05:23.920Z,0.00
2023-03-26T03:06:27.100Z,0.00
2023-03-26T03:07:30.414Z,0.00
2023-03-26T03:08:33.062Z,0.00
2023-03-26T03:09:36.237Z,0.00
2023-03-26T03:10:39.428Z,0.00
2023-03-26T03:11:42.527Z,0.00
2023-03-26T03:12:45.269Z,0.00
2023-03-26T03:13:48.473Z,0.00
2023-03-26T03:14:51.738Z,0.00
2023-03-26T03:15:58.208Z,0.00
2023-03-26T03:17:01.310Z,0.00
2023-03-26T03:18:04.484Z,0.00
2023-03-26T03:19:07.858Z,0.00
2023-03-26T03:20:11.236Z,0.00
2023-03-26T03:21:14.316Z,0.00
2023-03-26T03:22:17.594Z,0.00
2023-03-26T03:23:20.979Z,0.00
2023-03-26T03:24:24.065Z,0.57
2023-03-26T03:25:27.172Z,0.00
2023-03-26T03:26:30.238Z,0.00
2023-03-26T03:27:33.504Z,0.00
2023-03-26T03:28:36.585Z,0.00
2023-03-26T03:29:39.892Z,0.00
2023-03-26T03:30:43.013Z,0.57
2023-03-26T03:31:45.985Z,0.00
2023-03-26T03:32:49.258Z,0.00
2023-03-26T03:33:52.620Z,0.00
2023-03-26T03:34:55.782Z,0.00
2023-03-26T03:35:58.813Z,0.00
2023-03-26T03:37:03.182Z,0.00
2023-03-26T03:38:06.353Z,0.00
2023-03-26T03:39:09.456Z,0.00
2023-03-26T03:40:12.676Z,0.00
2023-03-26T03:41:15.893Z,0.00
2023-03-26T03:42:19.077Z,0.00
2023-03-26T03:43:22.054Z,0.00
2023-03-26T03:44:25.244Z,0.00
2023-03-26T03:45:28.318Z,0.00
2023-03-26T03:46:31.666Z,0.00
2023-03-26T03:47:35.032Z,0.00
2023-03-26T03:48:38.306Z,0.43
2023-03-26T03:49:41.463Z,0.67
2023-03-26T03:50:44.635Z,0.00
2023-03-26T03:51:47.818Z,0.00
2023-03-26T03:52:50.931Z,0.00
2023-03-26T03:53:53.874Z,0.00
2023-03-26T03:54:57.259Z,0.00
2023-03-26T03:56:00.444Z,0.00
2023-03-26T03:57:03.676Z,0.00
2023-03-26T03:58:06.815Z,0.14
2023-03-26T03:59:09.985Z,0.00
2023-03-26T04:00:13.375Z,0.00
2023-03-26T04:01:16.475Z,0.00
2023-03-26T04:02:19.684Z,0.00
2023-03-26T04:03:34.165Z,0.00
2023-03-26T04:04:27.229Z,0.00
2023-03-26T04:05:30.306Z,0.00
2023-03-26T04:06:33.384Z,0.00
2023-03-26T04:07:38.416Z,0.00
2023-03-26T04:08:41.498Z,0.00
2023-03-26T04:09:44.590Z,0.00
2023-03-26T04:10:47.548Z,0.00
2023-03-26T04:11:50.744Z,0.00
2023-03-26T04:12:53.912Z,0.00
2023-03-26T04:13:56.992Z,0.00
2023-03-26T04:15:01.789Z,0.00
2023-03-26T04:16:04.938Z,0.00
2023-03-26T04:17:08.071Z,0.00
2023-03-26T04:18:11.142Z,0.00
2023-03-26T04:19:14.333Z,0.00
2023-03-26T04:20:17.515Z,0.67
2023-03-26T04:21:20.488Z,0.00
2023-03-26T04:22:23.475Z,0.00
2023-03-26T04:23:26.703Z,0.00
2023-03-26T04:24:29.751Z,0.00
2023-03-26T04:25:34.670Z,0.00
2023-03-26T04:26:42.713Z,0.00
2023-03-26T04:27:45.831Z,0.00
2023-03-26T04:28:49.009Z,0.00
2023-03-26T04:29:52.056Z,0.00
2023-03-26T04:30:55.234Z,0.00
2023-03-26T04:31:58.468Z,0.00
2023-03-26T04:33:02.075Z,0.00
2023-03-26T04:34:05.554Z,0.00
2023-03-26T04:35:08.628Z,0.00
2023-03-26T04:36:11.920Z,0.00
2023-03-26T04:37:15.182Z,0.00
2023-03-26T04:38:18.489Z,0.00
2023-03-26T04:39:21.750Z,0.00
2023-03-26T04:40:27.490Z,0.00
2023-03-26T04:41:30.880Z,0.00
2023-03-26T04:42:34.482Z,0.00
2023-03-26T04:43:37.653Z,0.00
2023-03-26T04:44:40.939Z,0.00
2023-03-26T04:45:44.224Z,0.00
2023-03-26T04:46:47.636Z,0.00
2023-03-26T04:47:50.809Z,0.00
2023-03-26T04:49:00.909Z,0.00
2023-03-26T04:50:03.624Z,0.00
2023-03-26T04:51:06.889Z,0.00
2023-03-26T04:52:09.951Z,0.00
2023-03-26T04:53:12.947Z,0.00
2023-03-26T04:54:16.133Z,0.00
2023-03-26T04:55:19.321Z,0.00
2023-03-26T04:56:22.487Z,0.00
2023-03-26T04:57:25.470Z,0.00
2023-03-26T04:58:28.547Z,0.00
2023-03-26T04:59:31.747Z,0.00
2023-03-26T05:00:40.345Z,0.00
2023-03-26T05:01:43.660Z,0.00
2023-03-26T05:02:46.715Z,0.00
2023-03-26T05:03:49.824Z,0.00
2023-03-26T05:04:52.964Z,0.00
2023-03-26T05:05:57.623Z,0.00
2023-03-26T05:07:00.143Z,0.00
2023-03-26T05:08:03.209Z,0.00
2023-03-26T05:09:06.295Z,0.00
2023-03-26T05:10:09.528Z,0.00
2023-03-26T05:11:12.767Z,0.00
2023-03-26T05:12:15.849Z,0.00
2023-03-26T05:13:18.927Z,0.00
2023-03-26T05:14:21.903Z,0.00
2023-03-26T05:15:24.991Z,0.00
2023-03-26T05:16:27.998Z,0.00
2023-03-26T05:17:31.194Z,0.00
2023-03-26T05:18:35.850Z,0.43
2023-03-26T05:19:38.428Z,0.75
2023-03-26T05:20:41.630Z,0.14
2023-03-26T05:21:44.676Z,0.00
2023-03-26T05:22:47.669Z,0.00
2023-03-26T05:23:50.665Z,0.43
2023-03-26T05:24:53.627Z,0.67
2023-03-26T05:25:56.735Z,0.00
2023-03-26T05:26:59.784Z,0.00
2023-03-26T05:28:02.861Z,0.43
2023-03-26T05:29:06.062Z,0.57
2023-03-26T05:30:09.121Z,0.00
2023-03-26T05:31:16.924Z,0.00
2023-03-26T05:32:19.991Z,0.00
2023-03-26T05:33:23.047Z,0.00
2023-03-26T05:34:26.565Z,0.00
2023-03-26T05:35:30.875Z,0.00
2023-03-26T05:36:34.163Z,0.00
2023-03-26T05:37:39.304Z,0.00
2023-03-26T05:38:42.144Z,0.00
2023-03-26T05:39:45.448Z,0.00
2023-03-26T05:40:51.906Z,0.00
2023-03-26T05:41:55.284Z,0.50
2023-03-26T05:42:58.565Z,0.57
2023-03-26T05:44:01.863Z,0.86
2023-03-26T05:45:04.834Z,0.57
2023-03-26T05:46:08.208Z,0.00
2023-03-26T05:47:11.499Z,0.00
2023-03-26T05:48:16.398Z,0.00
2023-03-26T05:49:19.295Z,0.00
2023-03-26T05:50:22.395Z,0.00
2023-03-26T05:51:25.680Z,0.00
2023-03-26T05:52:28.954Z,0.00
2023-03-26T05:53:32.342Z,0.00
2023-03-26T05:54:35.733Z,0.00
2023-03-26T05:55:39.007Z,0.00
2023-03-26T05:56:42.129Z,0.00
2023-03-26T05:57:45.253Z,0.00
2023-03-26T05:58:49.683Z,0.00
2023-03-26T05:59:52.968Z,0.00
2023-03-26T06:00:56.373Z,0.00
2023-03-26T06:01:59.637Z,0.00
2023-03-26T06:03:02.913Z,0.00
2023-03-26T06:04:06.277Z,0.00
2023-03-26T06:05:09.600Z,0.00
2023-03-26T06:06:12.773Z,0.00
2023-03-26T06:07:16.945Z,0.00
2023-03-26T06:08:20.366Z,0.00
2023-03-26T06:09:23.538Z,0.43
2023-03-26T06:10:26.828Z,0.00
2023-03-26T06:11:31.644Z,0.00
2023-03-26T06:12:34.394Z,0.00
2023-03-26T06:13:37.598Z,0.00
2023-03-26T06:14:42.402Z,0.00
2023-03-26T06:15:45.626Z,0.00
2023-03-26T06:16:48.994Z,0.00
2023-03-26T06:17:54.170Z,0.00
2023-03-26T06:18:57.786Z,0.00
2023-03-26T06:20:01.086Z,0.00
2023-03-26T06:21:04.380Z,0.43
2023-03-26T06:22:07.662Z,0.57
2023-03-26T06:23:10.749Z,0.00
2023-03-26T06:24:13.723Z,0.00
2023-03-26T06:25:16.902Z,0.50
2023-03-26T06:26:19.977Z,0.14
2023-03-26T06:27:22.960Z,1.00
2023-03-26T06:28:26.032Z,0.14
2023-03-26T06:29:29.244Z,0.00
2023-03-26T06:30:32.604Z,0.00
2023-03-26T06:31:35.978Z,0.00
2023-03-26T06:32:39.186Z,0.00
2023-03-26T06:33:42.466Z,0.00
2023-03-26T06:34:45.746Z,0.00
2023-03-26T06:35:49.152Z,0.29
2023-03-26T06:36:52.315Z,0.00
2023-03-26T06:37:55.706Z,0.00
2023-03-26T06:38:58.983Z,0.00
2023-03-26T06:40:02.184Z,0.00
2023-03-26T06:41:05.457Z,0.00
2023-03-26T06:42:08.837Z,0.57
2023-03-26T06:43:11.911Z,0.00
2023-03-26T06:44:15.094Z,0.00
2023-03-26T06:45:18.500Z,0.00
2023-03-26T06:46:21.810Z,0.14
2023-03-26T06:47:25.190Z,0.57
2023-03-26T06:48:28.450Z,0.00
2023-03-26T06:49:31.824Z,0.00
2023-03-26T06:50:35.005Z,0.00
2023-03-26T06:51:38.396Z,0.43
2023-03-26T06:52:41.576Z,0.14
2023-03-26T06:53:44.775Z,0.43
2023-03-26T06:54:51.873Z,0.00
2023-03-26T06:55:56.830Z,0.00
2023-03-26T06:57:00.113Z,0.00
2023-03-26T06:58:03.314Z,0.14
2023-03-26T06:59:06.501Z,0.00
2023-03-26T07:00:09.996Z,0.57
2023-03-26T07:01:13.533Z,0.57
2023-03-26T07:02:16.973Z,0.00
2023-03-26T07:03:20.355Z,1.00
2023-03-26T07:04:23.787Z,0.86
2023-03-26T07:05:27.336Z,0.57
2023-03-26T07:06:30.745Z,0.00
2023-03-26T07:07:33.892Z,0.00
2023-03-26T07:08:37.332Z,0.00
2023-03-26T07:09:40.376Z,0.00
2023-03-26T07:10:43.380Z,0.00
2023-03-26T07:11:46.328Z,0.00
2023-03-26T07:12:49.600Z,0.00
2023-03-26T07:13:52.617Z,0.00
2023-03-26T07:14:56.391Z,0.00
2023-03-26T07:16:00.493Z,0.00
2023-03-26T07:17:03.478Z,0.00
2023-03-26T07:18:06.688Z,0.00
2023-03-26T07:19:11.342Z,0.00
2023-03-26T07:20:14.370Z,0.00
2023-03-26T07:21:21.128Z,0.00
2023-03-26T07:22:24.144Z,0.13
2023-03-26T07:23:27.324Z,0.57
2023-03-26T07:24:30.347Z,0.57
2023-03-26T07:25:33.540Z,0.00
2023-03-26T07:26:36.604Z,0.57
2023-03-26T07:27:39.695Z,0.67
2023-03-26T07:29:03.807Z,0.00
2023-03-26T07:29:48.913Z,0.25
2023-03-26T07:30:53.565Z,0.71
2023-03-26T07:31:56.998Z,0.00
2023-03-26T07:33:01.059Z,0.00
2023-03-26T07:34:04.224Z,0.00
2023-03-26T07:35:07.396Z,0.33
2023-03-26T07:36:10.390Z,0.50
2023-03-26T07:37:15.260Z,0.83
2023-03-26T07:38:18.488Z,0.88
2023-03-26T07:39:21.554Z,0.43
2023-03-26T07:40:24.534Z,1.00
2023-03-26T07:41:27.514Z,0.71
2023-03-26T07:42:30.485Z,0.33
2023-03-26T07:43:33.521Z,1.67
2023-03-26T07:44:36.502Z,0.29
2023-03-26T07:45:40.445Z,0.50
2023-03-26T07:46:43.616Z,0.67
2023-03-26T07:47:46.626Z,0.00
2023-03-26T07:48:49.877Z,0.50
2023-03-26T07:49:58.240Z,0.43
2023-03-26T07:51:01.154Z,0.50
2023-03-26T07:52:04.453Z,0.14
2023-03-26T07:53:07.422Z,1.00
2023-03-26T07:54:10.614Z,0.57
2023-03-26T07:55:13.791Z,0.00
2023-03-26T07:56:16.838Z,0.14
2023-03-26T07:57:19.858Z,1.00
2023-03-26T07:58:25.447Z,0.67
2023-03-26T07:59:28.450Z,1.00
2023-03-26T08:00:31.468Z,0.57
2023-03-26T08:01:34.404Z,0.67
2023-03-26T08:02:37.655Z,0.00
2023-03-26T08:03:40.782Z,0.14
2023-03-26T08:04:44.065Z,0.57
2023-03-26T08:05:47.135Z,0.43
2023-03-26T08:06:50.210Z,0.57
2023-03-26T08:07:53.320Z,0.00
2023-03-26T08:08:56.238Z,0.00
2023-03-26T08:09:59.253Z,0.83
2023-03-26T08:11:02.224Z,0.71
2023-03-26T08:12:05.204Z,1.29
2023-03-26T08:13:08.183Z,0.67
2023-03-26T08:14:11.271Z,0.33
2023-03-26T08:15:14.442Z,1.14
2023-03-26T08:16:17.464Z,0.57
2023-03-26T08:17:20.496Z,0.57
2023-03-26T08:18:23.570Z,0.00
2023-03-26T08:19:26.654Z,0.33
2023-03-26T08:20:29.743Z,0.86
2023-03-26T08:21:34.845Z,0.43
2023-03-26T08:22:37.349Z,1.00
2023-03-26T08:23:50.216Z,0.67
2023-03-26T08:24:44.720Z,0.25
2023-03-26T08:25:48.363Z,0.33
2023-03-26T08:26:52.097Z,1.00
2023-03-26T08:27:55.306Z,0.57
2023-03-26T08:28:58.343Z,0.33
2023-03-26T08:30:01.455Z,0.57
2023-03-26T08:31:04.646Z,0.43
2023-03-26T08:32:07.682Z,1.00
2023-03-26T08:33:10.822Z,1.00
2023-03-26T08:34:14.481Z,1.00
2023-03-26T08:35:17.611Z,1.43
2023-03-26T08:36:21.052Z,1.29
2023-03-26T08:37:24.020Z,0.00
2023-03-26T08:38:28.872Z,0.00
2023-03-26T08:39:31.918Z,0.00
2023-03-26T08:40:36.725Z,0.43
2023-03-26T08:41:39.309Z,0.88
2023-03-26T08:42:43.600Z,1.00
2023-03-26T08:43:46.714Z,0.25
2023-03-26T08:44:49.745Z,0.29
2023-03-26T08:45:52.829Z,0.57
2023-03-26T08:46:56.053Z,0.33
2023-03-26T08:47:59.151Z,0.67
2023-03-26T08:49:02.808Z,0.00
2023-03-26T08:50:08.375Z,0.25
2023-03-26T08:51:11.333Z,0.50
2023-03-26T08:52:14.511Z,1.00
2023-03-26T08:53:17.957Z,0.57
2023-03-26T08:54:20.994Z,0.43
2023-03-26T08:55:24.161Z,0.00
2023-03-26T08:56:31.331Z,0.86
2023-03-26T08:57:34.212Z,0.50
2023-03-26T08:58:37.356Z,1.00
2023-03-26T08:59:40.381Z,1.00
2023-03-26T09:00:43.958Z,1.00
2023-03-26T09:01:47.263Z,1.00
2023-03-26T09:02:50.545Z,0.67
2023-03-26T09:03:54.071Z,0.33
2023-03-26T09:04:57.513Z,0.57
2023-03-26T09:06:00.806Z,1.00
2023-03-26T09:07:03.974Z,0.71
2023-03-26T09:08:07.362Z,1.00
2023-03-26T09:09:18.846Z,1.00
2023-03-26T09:10:18.762Z,0.75
2023-03-26T09:11:22.026Z,0.57
2023-03-26T09:12:25.526Z,0.43
2023-03-26T09:13:28.805Z,0.57
2023-03-26T09:14:31.953Z,1.00
2023-03-26T09:15:35.280Z,0.83
2023-03-26T09:16:40.673Z,1.00
2023-03-26T09:17:43.806Z,0.00
2023-03-26T09:18:47.039Z,0.43
2023-03-26T09:19:50.276Z,0.43
2023-03-26T09:20:53.700Z,0.57
2023-03-26T09:21:57.019Z,0.43
2023-03-26T09:23:01.512Z,0.71
2023-03-26T09:24:04.806Z,0.50
2023-03-26T09:25:08.002Z,0.57
2023-03-26T09:26:11.290Z,0.57
2023-03-26T09:27:14.468Z,0.57
2023-03-26T09:28:18.436Z,0.00
2023-03-26T09:29:22.259Z,0.50
2023-03-26T09:30:25.922Z,0.29
2023-03-26T09:31:29.332Z,0.00
2023-03-26T09:32:32.649Z,0.00
2023-03-26T09:33:35.918Z,1.29
2023-03-26T09:34:39.214Z,1.43
2023-03-26T09:35:42.396Z,1.00
2023-03-26T09:36:45.566Z,0.43
2023-03-26T09:37:56.844Z,0.43
2023-03-26T09:38:57.265Z,0.13
2023-03-26T09:40:01.375Z,0.50
2023-03-26T09:41:06.756Z,1.00
2023-03-26T09:42:10.472Z,0.88
2023-03-26T09:43:13.666Z,1.43
2023-03-26T09:44:16.874Z,2.00
2023-03-26T09:45:20.240Z,0.14
2023-03-26T09:46:23.484Z,0.00
2023-03-26T09:47:26.833Z,0.00
2023-03-26T09:48:30.115Z,0.43
2023-03-26T09:49:33.354Z,0.43
2023-03-26T09:50:36.679Z,0.29
2023-03-26T09:51:39.928Z,0.43
2023-03-26T09:52:44.853Z,1.00
2023-03-26T09:53:48.143Z,0.50
2023-03-26T09:54:51.730Z,0.00
2023-03-26T09:55:55.629Z,0.57
2023-03-26T09:56:59.134Z,0.86
2023-03-26T09:58:02.637Z,1.00
2023-03-26T09:59:06.395Z,1.00
2023-03-26T10:00:09.889Z,1.14
2023-03-26T10:01:14.286Z,1.00
2023-03-26T10:02:17.996Z,1.00
2023-03-26T10:03:21.705Z,0.62
2023-03-26T10:04:25.415Z,0.57
2023-03-26T10:05:29.070Z,0.50
2023-03-26T10:06:32.730Z,0.57
2023-03-26T10:07:36.482Z,0.86
2023-03-26T10:08:40.052Z,1.14
2023-03-26T10:09:43.550Z,0.50
2023-03-26T10:10:47.453Z,1.00
2023-03-26T10:11:51.232Z,0.62
2023-03-26T10:12:59.757Z,0.57
2023-03-26T10:13:59.548Z,1.00
2023-03-26T10:15:03.246Z,0.88
2023-03-26T10:16:06.933Z,1.00
2023-03-26T10:17:10.834Z,1.00
2023-03-26T10:18:27.266Z,0.50
2023-03-26T10:19:20.269Z,0.88
2023-03-26T10:20:25.809Z,0.62
2023-03-26T10:21:28.998Z,0.13
2023-03-26T10:22:32.460Z,0.00
2023-03-26T10:23:35.984Z,0.00
2023-03-26T10:24:39.757Z,0.00
2023-03-26T10:25:43.555Z,0.50
2023-03-26T10:27:08.307Z,0.57
2023-03-26T10:27:51.268Z,0.00
2023-03-26T10:28:54.618Z,0.00
2023-03-26T10:29:57.839Z,0.00
2023-03-26T10:31:01.249Z,0.71
2023-03-26T10:32:04.499Z,0.00
2023-03-26T10:33:08.192Z,0.33
2023-03-26T10:34:28.586Z,0.57
2023-03-26T10:35:16.286Z,0.50
2023-03-26T10:36:19.985Z,0.57
2023-03-26T10:37:23.880Z,0.75
2023-03-26T10:38:27.264Z,0.57
2023-03-26T10:39:36.709Z,0.43
2023-03-26T10:40:34.658Z,1.00
2023-03-26T10:41:41.959Z,1.00
2023-03-26T10:42:45.428Z,0.50
2023-03-26T10:43:57.805Z,0.33
2023-03-26T10:44:53.419Z,1.00
2023-03-26T10:45:56.835Z,0.57
2023-03-26T10:47:00.502Z,0.50
2023-03-26T10:48:04.235Z,0.57
2023-03-26T10:49:07.452Z,0.43
2023-03-26T10:50:10.895Z,1.00
2023-03-26T10:51:13.868Z,0.43
2023-03-26T10:52:17.565Z,0.83
2023-03-26T10:53:21.228Z,0.57
2023-03-26T10:54:24.953Z,0.00
2023-03-26T10:55:27.824Z,0.43
2023-03-26T10:56:30.927Z,0.43
2023-03-26T10:57:39.252Z,1.00
2023-03-26T10:58:48.284Z,1.12
2023-03-26T10:59:51.314Z,1.50
2023-03-26T11:00:54.696Z,1.00
2023-03-26T11:01:59.412Z,0.86
2023-03-26T11:03:02.016Z,1.00
2023-03-26T11:04:04.949Z,1.00
2023-03-26T11:05:08.088Z,1.00
2023-03-26T11:08:37.442Z,1.00
2023-03-26T11:09:40.623Z,1.00
2023-03-26T11:10:43.597Z,0.67
2023-03-26T11:11:46.886Z,0.83
2023-03-26T11:12:55.407Z,1.00
2023-03-26T11:15:05.850Z,0.00
2023-03-26T11:16:12.373Z,0.43
2023-03-26T11:17:40.690Z,0.62
2023-03-26T11:18:20.782Z,1.00
2023-03-26T11:19:23.907Z,1.00
2023-03-26T11:20:28.049Z,1.00
2023-03-26T11:21:31.187Z,0.57
2023-03-26T11:22:34.405Z,0.43
2023-03-26T11:23:37.555Z,1.00
2023-03-26T11:24:40.564Z,1.00
2023-03-26T11:25:43.721Z,1.17
2023-03-26T11:26:46.686Z,0.33
2023-03-26T11:27:49.765Z,1.00
2023-03-26T11:29:04.274Z,1.00
2023-03-26T11:29:57.061Z,1.00
2023-03-26T11:31:00.252Z,1.00
2023-03-26T11:32:03.417Z,1.00
2023-03-26T11:33:06.415Z,1.00
2023-03-26T11:34:09.480Z,0.67
2023-03-26T11:35:14.632Z,0.00
2023-03-26T11:36:17.828Z,1.00
2023-03-26T11:37:20.969Z,1.17
2023-03-26T11:38:24.049Z,0.33
2023-03-26T11:39:27.031Z,1.00
2023-03-26T11:40:31.339Z,0.57
2023-03-26T11:41:34.744Z,0.50
2023-03-26T11:42:37.805Z,1.00
2023-03-26T11:43:40.885Z,1.00
2023-03-26T11:44:44.064Z,1.00
2023-03-26T11:45:47.138Z,1.00
2023-03-26T11:46:50.261Z,0.57
2023-03-26T11:47:53.361Z,0.00
2023-03-26T11:48:56.384Z,1.00
2023-03-26T11:49:59.660Z,1.00
2023-03-26T11:51:02.738Z,0.00
2023-03-26T11:52:05.824Z,1.29
2023-03-26T11:53:08.805Z,1.14
2023-03-26T11:54:11.886Z,0.33
2023-03-26T11:55:14.922Z,0.33
2023-03-26T11:56:20.054Z,0.57
2023-03-26T11:57:23.062Z,0.37
2023-03-26T11:58:26.716Z,0.00
2023-03-26T11:59:30.012Z,1.00
2023-03-26T12:00:33.202Z,1.00
2023-03-26T12:01:36.802Z,0.71
2023-03-26T12:02:40.616Z,0.57
2023-03-26T12:03:43.585Z,0.00
2023-03-26T12:04:46.924Z,0.33
2023-03-26T12:05:49.952Z,1.00
2023-03-26T12:06:53.063Z,0.57
2023-03-26T12:07:56.107Z,0.00
2023-03-26T12:09:00.472Z,0.00
2023-03-26T12:10:18.131Z,0.50
2023-03-26T12:11:07.762Z,1.00
2023-03-26T12:12:11.297Z,1.00
2023-03-26T12:13:14.272Z,1.00
2023-03-26T12:14:17.343Z,1.00
2023-03-26T12:15:20.632Z,1.00
2023-03-26T12:16:24.056Z,1.00
2023-03-26T12:17:31.363Z,1.00
2023-03-26T12:18:31.175Z,1.00
2023-03-26T12:19:34.174Z,0.57
2023-03-26T12:20:37.458Z,0.57
2023-03-26T12:21:40.650Z,0.57
2023-03-26T12:22:44.963Z,1.57
2023-03-26T12:23:48.128Z,1.00
2023-03-26T12:24:51.211Z,0.14
2023-03-26T12:25:54.389Z,0.14
2023-03-26T12:26:57.468Z,1.00
2023-03-26T12:28:00.458Z,1.00
2023-03-26T12:29:03.434Z,1.00
2023-03-26T12:30:06.612Z,1.00
2023-03-26T12:31:09.800Z,0.29
2023-03-26T12:32:12.869Z,0.43
2023-03-26T12:33:16.001Z,1.00
2023-03-26T12:34:19.131Z,1.00
2023-03-26T12:35:22.174Z,1.00
2023-03-26T12:36:25.187Z,1.00
2023-03-26T12:37:28.556Z,0.43
2023-03-26T12:38:31.945Z,0.29
2023-03-26T12:40:10.247Z,0.86
2023-03-26T12:40:39.147Z,1.00
2023-03-26T12:44:43.028Z,0.67
2023-03-26T12:44:54.772Z,1.00
2023-03-26T12:44:55.536Z,0.50
2023-03-26T12:45:00.533Z,0.50
2023-03-26T12:47:55.405Z,0.00
2023-03-26T12:47:59.262Z,0.50
2023-03-26T12:48:13.024Z,0.75
2023-03-26T12:49:16.845Z,0.00
2023-03-26T12:50:34.139Z,0.00
2023-03-26T12:51:24.871Z,0.50
2023-03-26T12:52:28.256Z,1.57
2023-03-26T12:53:31.531Z,0.57
2023-03-26T12:54:34.678Z,0.43
2023-03-26T12:55:38.013Z,1.00
2023-03-26T12:56:41.630Z,1.00
2023-03-26T12:57:45.112Z,1.00
2023-03-26T12:58:48.182Z,0.86
2023-03-26T12:59:51.268Z,1.00
2023-03-26T13:00:54.661Z,0.67
2023-03-26T13:01:58.267Z,1.00
2023-03-26T13:03:01.702Z,0.57
2023-03-26T13:04:05.106Z,0.43
2023-03-26T13:05:08.205Z,1.00
2023-03-26T13:06:11.278Z,0.50
2023-03-26T13:07:14.252Z,1.00
2023-03-26T13:08:17.624Z,0.57
2023-03-26T13:09:20.909Z,0.00
2023-03-26T13:10:24.092Z,0.00
2023-03-26T13:11:27.276Z,0.43
2023-03-26T13:12:30.553Z,0.71
2023-03-26T13:13:33.734Z,1.00
2023-03-26T13:14:36.924Z,1.00
2023-03-26T13:15:40.246Z,0.57
2023-03-26T13:16:46.733Z,0.43
2023-03-26T13:17:50.407Z,0.50
2023-03-26T13:18:53.946Z,1.00
2023-03-26T13:19:57.331Z,0.50
2023-03-26T13:21:00.513Z,0.00
2023-03-26T13:22:03.909Z,0.43
2023-03-26T13:23:07.499Z,1.00
2023-03-26T13:24:11.095Z,0.00
2023-03-26T13:25:14.677Z,0.43
2023-03-26T13:26:18.076Z,1.00
2023-03-26T13:27:21.960Z,0.88
2023-03-26T13:28:25.452Z,0.57
2023-03-26T13:29:28.938Z,0.00
2023-03-26T13:30:32.336Z,0.43
2023-03-26T13:31:35.515Z,1.00
2023-03-26T13:32:38.717Z,0.57
2023-03-26T13:33:41.870Z,0.43
2023-03-26T13:34:45.591Z,1.00
2023-03-26T13:35:48.976Z,0.86
2023-03-26T13:36:52.500Z,0.50
2023-03-26T13:37:55.635Z,0.43
2023-03-26T13:39:00.631Z,1.00
2023-03-26T13:40:03.125Z,1.00
2023-03-26T13:41:06.603Z,1.43
2023-03-26T13:42:09.913Z,1.14
2023-03-26T13:43:13.201Z,1.00
2023-03-26T13:44:16.251Z,1.14
2023-03-26T13:45:19.334Z,1.14
2023-03-26T13:46:22.646Z,0.43
2023-03-26T13:47:25.936Z,1.00
2023-03-26T13:48:29.485Z,0.57
2023-03-26T13:49:32.700Z,0.00
2023-03-26T13:50:35.825Z,1.00
2023-03-26T13:51:39.232Z,1.00
2023-03-26T13:52:42.645Z,0.67
2023-03-26T13:53:46.038Z,0.00
2023-03-26T13:54:49.405Z,0.00
2023-03-26T13:55:52.898Z,0.29
2023-03-26T13:56:56.345Z,0.00
2023-03-26T13:57:59.579Z,0.14
2023-03-26T13:59:03.050Z,0.43
2023-03-26T14:00:06.336Z,1.00
2023-03-26T14:01:09.651Z,0.00
2023-03-26T14:02:13.116Z,0.00
2023-03-26T14:03:16.479Z,0.43
2023-03-26T14:04:19.924Z,1.00
2023-03-26T14:05:23.172Z,1.00
2023-03-26T14:06:26.455Z,0.57
2023-03-26T14:07:29.800Z,0.00
2023-03-26T14:08:33.360Z,0.29